Time;durP1;ratioP1;P1;durP2;ratioP2;P2;SDS_P1;SDS_P2;PMS_P1;PMS_P2;Temp;Humidity;BMP_temperature;BMP_pressure;BME280_temperature;BME280_humidity;BME280_pressure;Samples;Min_cycle;Max_cycle;Signal;HPM_P1;HPM_P2
2022/10/11 00:00:18;;;;;;;10.00;5.60;;;;;;;11.03;93.15;99098.94;4157951;28;20013;-73
2022/10/11 00:02:18;;;;;;;7.70;5.05;;;;;;;11.03;93.41;99107.25;4156641;28;20462;-73
2022/10/11 00:04:18;;;;;;;8.00;5.03;;;;;;;10.97;93.45;99104.78;4158347;28;20026;-73
2022/10/11 00:06:19;;;;;;;7.90;5.55;;;;;;;10.94;93.41;99108.28;4157328;28;20397;-73
2022/10/11 00:08:20;;;;;;;7.25;4.70;;;;;;;10.90;93.11;99112.94;4156395;28;20458;-73
2022/10/11 00:10:20;;;;;;;9.05;5.60;;;;;;;10.87;93.10;99105.38;4157896;28;20198;-73
2022/10/11 00:12:21;;;;;;;11.40;5.55;;;;;;;10.91;93.50;99110.97;4155959;28;20045;-73
2022/10/11 00:14:22;;;;;;;8.77;5.05;;;;;;;10.84;93.93;99108.88;4155906;28;20041;-72
2022/10/11 00:16:23;;;;;;;8.57;5.82;;;;;;;10.86;94.68;99114.03;4159090;28;20548;-73
2022/10/11 00:18:23;;;;;;;10.43;6.13;;;;;;;10.92;94.47;99120.88;4156051;28;20032;-73
2022/10/11 00:20:25;;;;;;;10.20;6.07;;;;;;;10.93;94.94;99136.34;4158911;28;20046;-73
2022/10/11 00:22:25;;;;;;;10.40;6.20;;;;;;;10.94;94.77;99124.09;4157730;28;20502;-73
2022/10/11 00:24:26;;;;;;;9.38;6.15;;;;;;;10.95;94.85;99132.03;4160149;28;20088;-73
2022/10/11 00:26:26;;;;;;;9.88;5.95;;;;;;;10.96;95.04;99130.84;4156368;28;20065;-73
2022/10/11 00:28:26;;;;;;;11.45;5.85;;;;;;;11.04;94.85;99136.53;4157961;28;20082;-73
2022/10/11 00:30:27;;;;;;;11.95;6.60;;;;;;;11.04;94.70;99142.09;4158961;28;20686;-73
2022/10/11 00:32:27;;;;;;;11.98;6.22;;;;;;;11.06;94.72;99146.06;4156885;28;20041;-73
2022/10/11 00:34:28;;;;;;;9.93;6.50;;;;;;;11.11;94.65;99142.22;4157921;28;20424;-73
2022/10/11 00:36:28;;;;;;;11.10;6.82;;;;;;;11.01;95.45;99142.81;4155845;28;20060;-73
2022/10/11 00:38:28;;;;;;;9.85;6.18;;;;;;;11.02;95.46;99141.66;4156934;28;20045;-73
2022/10/11 00:40:29;;;;;;;10.68;5.63;;;;;;;11.07;95.13;99146.88;4157902;28;20046;-73
2022/10/11 00:42:29;;;;;;;8.98;6.47;;;;;;;10.92;96.05;99146.59;4156365;28;20545;-73
2022/10/11 00:44:31;;;;;;;8.40;5.05;;;;;;;10.83;96.19;99154.31;4158387;28;20129;-73
2022/10/11 00:46:32;;;;;;;7.65;3.92;;;;;;;10.84;95.83;99160.63;4157563;28;20131;-73
2022/10/11 00:48:35;;;;;;;8.68;3.85;;;;;;;10.80;95.28;99159.78;4155004;28;20076;-73
2022/10/11 00:50:36;;;;;;;7.45;3.90;;;;;;;10.68;95.62;99152.41;4159668;28;20050;-73
2022/10/11 00:52:40;;;;;;;9.65;3.30;;;;;;;10.53;96.11;99158.78;4158711;28;20075;-73
2022/10/11 00:54:43;;;;;;;7.65;3.40;;;;;;;10.44;96.59;99158.19;4155040;28;20045;-73
2022/10/11 00:56:48;;;;;;;9.68;3.17;;;;;;;10.39;95.96;99173.09;4158770;28;20080;-73
2022/10/11 00:58:49;;;;;;;5.68;3.33;;;;;;;10.32;96.20;99170.16;4153795;28;20493;-73
2022/10/11 01:00:49;;;;;;;9.02;3.67;;;;;;;10.30;95.94;99176.06;4154863;28;20038;-73
2022/10/11 01:02:50;;;;;;;9.82;2.63;;;;;;;10.26;95.89;99179.88;4155354;28;20053;-73
2022/10/11 01:04:50;;;;;;;6.13;2.85;;;;;;;10.20;95.96;99173.81;4154005;28;20054;-73
2022/10/11 01:06:52;;;;;;;8.73;2.83;;;;;;;10.20;96.07;99184.06;4155578;28;20057;-73
2022/10/11 01:08:52;;;;;;;6.57;2.75;;;;;;;10.18;95.66;99178.06;4153008;28;20122;-73
2022/10/11 01:10:53;;;;;;;18.85;3.05;;;;;;;10.17;94.83;99180.03;4155377;28;20474;-73
2022/10/11 01:12:56;;;;;;;6.25;2.30;;;;;;;10.13;94.33;99185.50;4162365;28;20053;-73
2022/10/11 01:15:14;;;;;;;8.55;3.30;;;;;;;10.12;94.03;99181.13;4157351;28;20140;-73
2022/10/11 01:17:24;;;;;;;10.18;2.45;;;;;;;10.21;94.02;99188.44;4155353;28;20088;-73
2022/10/11 01:19:51;;;;;;;9.35;2.38;;;;;;;10.08;94.01;99187.72;4157759;28;20153;-73
2022/10/11 01:22:04;;;;;;;7.85;2.35;;;;;;;10.07;94.26;99188.88;4158083;28;20136;-73
2022/10/11 01:24:37;;;;;;;8.88;2.10;;;;;;;10.02;94.81;99191.94;4156031;28;20037;-73
2022/10/11 01:26:56;;;;;;;;;;;;;;;10.02;94.33;99203.00;4160224;28;20046;-73
2022/10/11 01:29:15;;;;;;;5.65;2.38;;;;;;;10.04;94.33;99197.91;4154983;28;19924;-73
2022/10/11 01:31:26;;;;;;;7.70;2.25;;;;;;;10.00;94.56;99211.63;4154104;28;20113;-73
2022/10/11 01:33:54;;;;;;;7.72;1.98;;;;;;;9.91;94.72;99208.22;4155573;28;20092;-73
2022/10/11 01:36:26;;;;;;;8.65;2.17;;;;;;;9.87;94.83;99207.34;4159251;28;20477;-73
2022/10/11 01:38:36;;;;;;;7.35;2.65;;;;;;;9.83;95.35;99211.97;4153898;28;20049;-73
2022/10/11 01:40:44;;;;;;;9.25;2.75;;;;;;;9.80;94.99;99209.94;4154223;28;20128;-73
2022/10/11 01:42:45;;;;;;;7.97;2.35;;;;;;;9.79;95.34;99219.38;4153628;28;20489;-72
2022/10/11 01:44:49;;;;;;;7.75;2.30;;;;;;;9.75;95.07;99210.19;4154592;28;20048;-73
2022/10/11 01:46:50;;;;;;;11.77;2.67;;;;;;;9.76;93.79;99211.78;4155475;28;20358;-73
2022/10/11 01:48:57;;;;;;;10.13;2.58;;;;;;;9.70;92.90;99211.25;4153185;28;20561;-73
2022/10/11 01:51:02;;;;;;;10.73;3.50;;;;;;;9.63;92.85;99211.06;4158448;28;20117;-73
2022/10/11 01:53:36;;;;;;;9.63;3.22;;;;;;;9.55;92.66;99214.78;4154108;28;20069;-73
2022/10/11 01:56:16;;;;;;;8.73;2.45;;;;;;;9.49;93.10;99207.91;4140486;28;20551;-72
2022/10/11 01:58:44;;;;;;;7.65;2.33;;;;;;;9.40;93.31;99213.59;4155159;28;20041;-73
2022/10/11 02:01:05;;;;;;;4.68;2.22;;;;;;;9.37;93.74;99217.06;4159019;28;20068;-73
2022/10/11 02:03:32;;;;;;;11.65;2.78;;;;;;;9.27;94.39;99223.09;4155728;28;20524;-72
2022/10/11 02:06:02;;;;;;;12.55;2.35;;;;;;;9.19;94.14;99222.09;4154078;28;20088;-72
2022/10/11 02:08:15;;;;;;;8.18;2.28;;;;;;;9.13;93.09;99226.25;4154930;28;20055;-72
2022/10/11 02:10:27;;;;;;;9.27;2.65;;;;;;;9.10;93.09;99234.41;4153825;28;20026;-72
2022/10/11 02:12:37;;;;;;;9.02;2.58;;;;;;;9.03;93.39;99239.75;4153862;28;20063;-72
2022/10/11 02:14:42;;;;;;;8.35;2.85;;;;;;;8.95;92.32;99238.72;4153633;28;20041;-72
2022/10/11 02:16:51;;;;;;;9.52;3.17;;;;;;;8.87;92.41;99243.22;4154784;28;20124;-72
2022/10/11 02:18:54;;;;;;;7.05;2.13;;;;;;;8.79;92.59;99251.63;4156804;28;20079;-72
2022/10/11 02:20:57;;;;;;;10.77;2.90;;;;;;;8.67;92.95;99244.16;4157652;28;20099;-72
2022/10/11 02:23:05;;;;;;;5.47;2.67;;;;;;;8.58;93.36;99244.28;4156929;28;20048;-72
2022/10/11 02:25:10;;;;;;;9.82;2.60;;;;;;;8.53;93.37;99243.72;4156604;28;20127;-72
2022/10/11 02:27:12;;;;;;;8.65;2.28;;;;;;;8.47;93.23;99248.66;4157613;28;20044;-72
2022/10/11 02:29:15;;;;;;;11.57;2.70;;;;;;;8.44;93.05;99255.69;4156945;28;20319;-72
2022/10/11 02:31:16;;;;;;;;;;;;;;;8.35;93.70;99263.25;4157420;28;20046;-72
2022/10/11 02:33:22;;;;;;;14.93;4.50;;;;;;;8.27;93.38;99257.81;4156234;28;20400;-72
2022/10/11 02:35:28;;;;;;;8.20;2.90;;;;;;;8.11;94.44;99258.50;4157203;28;20467;-72
2022/10/11 02:37:34;;;;;;;10.93;2.47;;;;;;;8.14;93.62;99257.00;4156949;28;20041;-72
2022/10/11 02:39:41;;;;;;;10.85;2.88;;;;;;;8.07;93.78;99265.03;4156341;28;20091;-72
2022/10/11 02:41:42;;;;;;;10.57;2.80;;;;;;;8.03;94.71;99262.16;4158093;28;20072;-72
2022/10/11 02:43:50;;;;;;;5.32;2.08;;;;;;;7.96;94.39;99264.69;4159200;28;20049;-72
2022/10/11 02:45:57;;;;;;;10.38;2.67;;;;;;;7.87;95.17;99258.47;4156869;28;20140;-72
2022/10/11 02:47:58;;;;;;;6.10;1.88;;;;;;;7.84;95.20;99264.63;4157700;28;20381;-72
2022/10/11 02:49:58;;;;;;;8.20;2.42;;;;;;;7.79;95.37;99264.88;4157608;28;20041;-72
2022/10/11 02:51:59;;;;;;;12.23;3.00;;;;;;;7.72;96.01;99259.09;4158211;28;20413;-72
2022/10/11 02:53:59;;;;;;;8.88;2.20;;;;;;;7.67;96.34;99262.06;4156797;28;20396;-72
2022/10/11 02:55:59;;;;;;;9.27;2.60;;;;;;;7.67;95.74;99279.41;4156464;28;20037;-72
2022/10/11 02:58:01;;;;;;;10.07;2.75;;;;;;;7.66;96.46;99277.78;4158715;28;20046;-72
2022/10/11 03:00:02;;;;;;;9.38;2.78;;;;;;;7.65;96.21;99278.13;4155446;28;20045;-72
2022/10/11 03:02:02;;;;;;;8.88;2.60;;;;;;;7.60;96.64;99284.66;4156996;28;20040;-72
2022/10/11 03:04:02;;;;;;;7.53;2.55;;;;;;;7.60;96.57;99282.69;4156448;28;20124;-72
2022/10/11 03:06:03;;;;;;;11.10;4.03;;;;;;;7.64;95.91;99288.34;4156248;28;20096;-72
2022/10/11 03:08:04;;;;;;;6.95;2.65;;;;;;;7.58;95.70;99285.00;4157352;28;20071;-72
2022/10/11 03:10:05;;;;;;;7.00;2.90;;;;;;;7.55;96.48;99284.88;4156013;28;20204;-72
2022/10/11 03:12:06;;;;;;;12.48;3.38;;;;;;;7.52;96.32;99296.53;4156698;28;20033;-72
2022/10/11 03:14:06;;;;;;;11.30;2.72;;;;;;;7.43;96.90;99295.81;4156047;28;20044;-72
2022/10/11 03:16:07;;;;;;;10.13;3.53;;;;;;;7.41;97.07;99296.16;4156679;28;20267;-72
2022/10/11 03:18:07;;;;;;;13.60;3.28;;;;;;;7.36;97.39;99303.81;4156088;28;20349;-72
2022/10/11 03:20:08;;;;;;;7.90;2.45;;;;;;;7.30;96.60;99304.03;4155092;28;20493;-72
2022/10/11 03:22:08;;;;;;;9.77;3.03;;;;;;;7.25;96.94;99303.41;4156465;28;20025;-72
2022/10/11 03:24:09;;;;;;;12.70;2.92;;;;;;;7.25;96.87;99308.91;4156220;28;20084;-72
2022/10/11 03:26:09;;;;;;;12.27;3.10;;;;;;;7.11;97.53;99305.63;4157348;28;20433;-72
2022/10/11 03:28:09;;;;;;;10.32;2.58;;;;;;;7.11;96.78;99306.44;4157503;28;20432;-72
2022/10/11 03:30:12;;;;;;;9.45;2.97;;;;;;;7.04;97.00;99312.47;4159651;28;20112;-72
2022/10/11 03:32:12;;;;;;;12.60;3.70;;;;;;;6.92;98.14;99315.13;4155938;28;20100;-72
2022/10/11 03:34:12;;;;;;;9.70;2.40;;;;;;;6.88;98.29;99313.41;4155424;28;20065;-72
2022/10/11 03:36:13;;;;;;;9.82;2.67;;;;;;;6.81;98.45;99311.16;4156550;28;20036;-72
2022/10/11 03:38:16;;;;;;;9.45;2.70;;;;;;;6.75;99.12;99299.53;4162115;28;20061;-72
2022/10/11 03:40:16;;;;;;;6.72;2.80;;;;;;;6.72;99.12;99299.41;4161388;28;20357;-72
2022/10/11 03:42:17;;;;;;;14.73;2.78;;;;;;;6.76;100.00;99311.34;4155484;28;20033;-72
2022/10/11 03:44:17;;;;;;;9.05;3.78;;;;;;;6.78;100.00;99305.50;4156136;28;20355;-72
2022/10/11 03:46:17;;;;;;;14.70;3.10;;;;;;;6.84;99.81;99315.19;4157576;28;20025;-72
2022/10/11 03:48:18;;;;;;;9.10;2.78;;;;;;;6.88;99.23;99313.41;4156007;28;20099;-72
2022/10/11 03:50:18;;;;;;;10.23;4.15;;;;;;;6.87;98.45;99315.34;4156181;28;20040;-72
2022/10/11 03:52:19;;;;;;;5.15;2.35;;;;;;;6.83;98.84;99316.34;4154938;28;20033;-72
2022/10/11 03:54:19;;;;;;;9.10;2.40;;;;;;;6.80;98.47;99323.31;4156769;28;20036;-71
2022/10/11 03:56:19;;;;;;;9.90;3.00;;;;;;;6.73;98.22;99314.78;4156437;28;20435;-72
2022/10/11 03:58:21;;;;;;;7.53;2.97;;;;;;;6.66;97.54;99320.00;4159254;28;20849;-72
2022/10/11 04:00:21;;;;;;;10.23;2.85;;;;;;;6.60;97.30;99329.56;4163676;28;20136;-72
2022/10/11 04:02:22;;;;;;;7.93;2.38;;;;;;;6.46;97.78;99333.34;4159200;28;20095;-72
2022/10/11 04:04:22;;;;;;;6.65;2.35;;;;;;;6.43;98.30;99338.69;4161803;28;20065;-72
2022/10/11 04:06:23;;;;;;;11.27;2.35;;;;;;;6.39;99.06;99335.81;4158531;28;20250;-72
2022/10/11 04:08:23;;;;;;;10.55;2.08;;;;;;;6.30;98.05;99334.22;4158425;28;20033;-72
2022/10/11 04:10:23;;;;;;;10.38;2.75;;;;;;;6.25;98.91;99334.38;4156621;28;20057;-72
2022/10/11 04:12:24;;;;;;;10.73;2.70;;;;;;;6.20;99.22;99335.38;4159622;28;20447;-72
2022/10/11 04:14:25;;;;;;;6.30;3.00;;;;;;;6.11;98.62;99334.59;4158952;28;20033;-72
2022/10/11 04:16:25;;;;;;;8.15;2.63;;;;;;;6.05;98.96;99341.41;4156457;28;20041;-72
2022/10/11 04:18:26;;;;;;;7.75;3.08;;;;;;;6.04;98.68;99350.75;4156079;28;20087;-72
2022/10/11 04:20:26;;;;;;;10.68;3.05;;;;;;;5.95;98.46;99350.78;4159133;28;20047;-72
2022/10/11 04:22:26;;;;;;;6.78;2.30;;;;;;;5.87;96.90;99340.59;4155792;28;20090;-72
2022/10/11 04:24:26;;;;;;;8.63;3.42;;;;;;;5.84;97.78;99361.28;4157510;28;20057;-72
2022/10/11 04:26:27;;;;;;;10.23;2.70;;;;;;;5.77;98.15;99358.22;4160598;28;20052;-72
2022/10/11 04:28:27;;;;;;;8.90;3.08;;;;;;;5.66;98.27;99361.63;4156488;28;20552;-72
2022/10/11 04:30:27;;;;;;;6.22;2.88;;;;;;;5.63;97.93;99360.34;4157964;28;20048;-72
2022/10/11 04:32:28;;;;;;;8.48;3.50;;;;;;;5.60;97.86;99363.72;4159283;28;20229;-72
2022/10/11 04:34:28;;;;;;;9.23;3.72;;;;;;;5.48;97.84;99356.16;4160532;28;20038;-72
2022/10/11 04:36:31;;;;;;;12.20;4.78;;;;;;;5.46;98.37;99363.91;4158697;28;20528;-72
2022/10/11 04:38:32;;;;;;;12.48;4.80;;;;;;;5.44;97.97;99366.13;4159302;28;20044;-72
2022/10/11 04:40:32;;;;;;;10.32;4.07;;;;;;;5.44;98.21;99368.88;4157774;28;20686;-72
2022/10/11 04:42:33;;;;;;;9.88;3.78;;;;;;;5.39;98.78;99358.09;4158692;28;20123;-72
2022/10/11 04:44:33;;;;;;;13.75;3.72;;;;;;;5.40;100.00;99370.66;4156040;28;20062;-72
2022/10/11 04:46:34;;;;;;;9.50;3.00;;;;;;;5.39;99.71;99365.50;4159395;28;20053;-72
2022/10/11 04:48:34;;;;;;;9.18;3.05;;;;;;;5.36;99.43;99373.22;4156009;28;20111;-72
2022/10/11 04:50:35;;;;;;;10.52;3.22;;;;;;;5.39;100.00;99371.00;4155585;28;20432;-72
2022/10/11 04:52:36;;;;;;;5.68;2.78;;;;;;;5.39;100.00;99380.03;4157599;28;20178;-72
2022/10/11 04:54:36;;;;;;;11.13;4.30;;;;;;;5.39;100.00;99381.97;4156668;28;20386;-72
2022/10/11 04:56:36;;;;;;;7.82;3.30;;;;;;;5.37;100.00;99379.53;4159356;28;20060;-72
2022/10/11 04:58:41;;;;;;;8.10;3.33;;;;;;;5.40;100.00;99380.84;4155172;28;20344;-72
2022/10/11 05:00:41;;;;;;;10.77;3.53;;;;;;;5.40;100.00;99389.88;4159696;28;20123;-72
2022/10/11 05:02:41;;;;;;;7.20;3.15;;;;;;;5.36;100.00;99377.91;4158752;28;20060;-72
2022/10/11 05:04:42;;;;;;;10.82;3.47;;;;;;;5.35;99.81;99384.53;4155621;28;20765;-72
2022/10/11 05:06:42;;;;;;;16.67;4.63;;;;;;;5.31;99.63;99394.56;4154019;28;20707;-72
2022/10/11 05:08:42;;;;;;;12.52;4.25;;;;;;;5.21;100.00;99392.09;4153864;28;20265;-72
2022/10/11 05:10:57;;;;;;;7.28;3.92;;;;;;;5.14;100.00;99394.53;4154183;28;20156;-72
2022/10/11 05:12:57;;;;;;;16.02;4.60;;;;;;;5.11;100.00;99390.47;4161130;28;20504;-72
2022/10/11 05:14:58;;;;;;;20.75;7.18;;;;;;;5.09;100.00;99392.72;4155010;28;20320;-72
2022/10/11 05:16:58;;;;;;;11.48;5.63;;;;;;;5.07;100.00;99392.25;4154647;28;20065;-72
2022/10/11 05:18:59;;;;;;;12.80;4.72;;;;;;;5.05;100.00;99402.75;4154524;28;20385;-72
2022/10/11 05:21:00;;;;;;;12.50;4.78;;;;;;;5.05;100.00;99405.47;4154774;28;20109;-72
2022/10/11 05:23:00;;;;;;;11.85;4.82;;;;;;;4.99;100.00;99404.00;4155136;28;20033;-72
2022/10/11 05:25:01;;;;;;;14.38;4.03;;;;;;;4.93;100.00;99406.06;4154941;28;20126;-72
2022/10/11 05:27:01;;;;;;;15.77;4.50;;;;;;;4.86;100.00;99404.91;4153643;28;20493;-72
2022/10/11 05:29:02;;;;;;;23.35;5.10;;;;;;;4.79;100.00;99406.19;4154395;28;20422;-72
2022/10/11 05:31:03;;;;;;;7.72;3.33;;;;;;;4.79;100.00;99419.88;4154223;28;20042;-72
2022/10/11 05:33:03;;;;;;;4.80;2.90;;;;;;;4.75;100.00;99424.41;4155112;28;20053;-72
2022/10/11 05:35:04;;;;;;;7.80;3.53;;;;;;;4.71;100.00;99425.34;4154171;28;20132;-71
2022/10/11 05:37:04;;;;;;;9.68;3.40;;;;;;;4.69;100.00;99431.13;4154706;28;20041;-72
2022/10/11 05:39:05;;;;;;;9.18;2.80;;;;;;;4.61;100.00;99422.88;4158741;28;20136;-72
2022/10/11 05:41:07;;;;;;;12.20;3.45;;;;;;;4.56;100.00;99428.53;4152999;28;20101;-72
2022/10/11 05:43:08;;;;;;;9.30;2.90;;;;;;;4.58;100.00;99429.00;4154489;28;20144;-72
2022/10/11 05:45:08;;;;;;;10.65;3.42;;;;;;;4.57;100.00;99438.34;4154271;28;20143;-72
2022/10/11 05:47:09;;;;;;;12.43;3.33;;;;;;;4.53;100.00;99438.16;4155469;28;20516;-71
2022/10/11 05:49:09;;;;;;;6.13;2.85;;;;;;;4.50;100.00;99436.06;4153465;28;20064;-72
2022/10/11 05:51:10;;;;;;;8.45;3.13;;;;;;;4.51;100.00;99446.69;4156316;28;20133;-72
2022/10/11 05:53:11;;;;;;;10.35;3.53;;;;;;;4.52;100.00;99442.03;4162436;28;20498;-71
2022/10/11 05:55:11;;;;;;;7.63;2.65;;;;;;;4.55;100.00;99451.53;4157477;28;20126;-72
2022/10/11 05:57:11;;;;;;;8.77;3.35;;;;;;;4.49;100.00;99451.69;4158063;28;20082;-72
2022/10/11 05:59:12;;;;;;;12.05;3.60;;;;;;;4.46;100.00;99451.50;4156945;28;20186;-72
2022/10/11 06:01:26;;;;;;;6.75;2.95;;;;;;;4.47;100.00;99453.13;4158339;28;20073;-72
2022/10/11 06:03:26;;;;;;;9.35;3.20;;;;;;;4.48;100.00;99458.31;4157317;28;20073;-72
2022/10/11 06:05:27;;;;;;;11.93;3.60;;;;;;;4.44;100.00;99454.56;4158161;28;20252;-72
2022/10/11 06:07:27;;;;;;;8.43;3.30;;;;;;;4.42;100.00;99456.81;4157022;28;20042;-72
2022/10/11 06:09:28;;;;;;;11.60;3.17;;;;;;;4.40;100.00;99461.00;4157576;28;20034;-71
2022/10/11 06:11:29;;;;;;;9.25;3.30;;;;;;;4.37;100.00;99467.88;4157859;28;20046;-72
2022/10/11 06:13:29;;;;;;;8.38;2.70;;;;;;;4.36;100.00;99470.94;4156911;28;20049;-71
2022/10/11 06:15:29;;;;;;;20.90;4.07;;;;;;;4.35;100.00;99463.84;4160337;28;20073;-72
2022/10/11 06:17:30;;;;;;;8.05;3.17;;;;;;;4.40;100.00;99463.72;4157428;28;20333;-72
2022/10/11 06:19:30;;;;;;;6.38;2.38;;;;;;;4.38;100.00;99469.50;4158204;28;20069;-72
2022/10/11 06:21:31;;;;;;;7.97;2.80;;;;;;;4.37;100.00;99470.63;4161696;28;20056;-72
2022/10/11 06:23:32;;;;;;;7.05;3.80;;;;;;;4.36;100.00;99471.75;4157582;28;20049;-72
2022/10/11 06:25:32;;;;;;;11.65;4.38;;;;;;;4.44;100.00;99479.22;4157024;28;20049;-72
2022/10/11 06:27:32;;;;;;;11.57;2.75;;;;;;;4.53;100.00;99468.31;4162523;28;20135;-72
2022/10/11 06:29:33;;;;;;;15.40;3.63;;;;;;;4.53;100.00;99473.78;4158772;28;20479;-72
2022/10/11 06:31:34;;;;;;;9.75;3.28;;;;;;;4.56;100.00;99469.63;4160808;28;20045;-72
2022/10/11 06:33:35;;;;;;;8.90;3.10;;;;;;;4.62;100.00;99471.09;4158096;28;20116;-71
2022/10/11 06:35:35;;;;;;;8.30;3.60;;;;;;;4.73;100.00;99480.69;4156784;28;20046;-71
2022/10/11 06:37:36;;;;;;;13.70;4.32;;;;;;;4.85;100.00;99485.56;4157165;28;20316;-71
2022/10/11 06:39:36;;;;;;;13.43;3.47;;;;;;;4.96;100.00;99487.69;4157244;28;20393;-71
2022/10/11 06:41:36;;;;;;;9.50;4.07;;;;;;;5.06;100.00;99498.41;4156410;28;20496;-72
2022/10/11 06:43:37;;;;;;;10.50;3.95;;;;;;;5.08;100.00;99498.91;4156677;28;20045;-72
2022/10/11 06:45:37;;;;;;;10.82;4.30;;;;;;;5.14;100.00;99499.56;4156964;28;20117;-72
2022/10/11 06:47:37;;;;;;;11.25;3.97;;;;;;;5.16;100.00;99505.56;4157888;28;20045;-72
2022/10/11 06:49:38;;;;;;;13.88;4.10;;;;;;;5.23;100.00;99508.66;4155290;28;20050;-72
2022/10/11 06:51:38;;;;;;;8.93;4.63;;;;;;;5.26;100.00;99513.50;4157208;28;20049;-71
2022/10/11 06:53:39;;;;;;;13.75;4.43;;;;;;;5.28;100.00;99503.00;4163397;28;20040;-72
2022/10/11 06:55:39;;;;;;;11.50;4.35;;;;;;;5.30;100.00;99513.69;4156306;28;20037;-71
2022/10/11 06:57:40;;;;;;;8.00;4.10;;;;;;;5.28;100.00;99505.75;4156852;28;20204;-72
2022/10/11 06:59:40;;;;;;;12.02;4.68;;;;;;;5.35;100.00;99511.56;4157311;28;20073;-72
2022/10/11 07:01:40;;;;;;;9.77;4.63;;;;;;;5.39;100.00;99511.75;4157357;28;20084;-72
2022/10/11 07:03:41;;;;;;;10.32;3.75;;;;;;;5.44;100.00;99516.28;4155667;28;20045;-72
2022/10/11 07:05:41;;;;;;;11.70;4.05;;;;;;;5.51;100.00;99525.66;4156915;28;20045;-72
2022/10/11 07:07:42;;;;;;;7.10;3.50;;;;;;;5.58;100.00;99526.00;4157120;28;20156;-72
2022/10/11 07:09:42;;;;;;;9.65;4.10;;;;;;;5.63;100.00;99523.13;4155226;28;20089;-72
2022/10/11 07:11:42;;;;;;;35.90;5.65;;;;;;;5.71;100.00;99524.28;4167816;28;20041;-72
2022/10/11 07:13:52;;;;;;;12.95;4.18;;;;;;;5.77;100.00;99522.16;4155543;28;20389;-72
2022/10/11 07:15:52;;;;;;;11.10;4.28;;;;;;;5.84;100.00;99528.00;4157251;28;20148;-72
2022/10/11 07:17:53;;;;;;;22.42;5.60;;;;;;;5.88;100.00;99531.75;4159947;28;20426;-72
2022/10/11 07:19:53;;;;;;;16.23;4.43;;;;;;;5.93;100.00;99542.59;4156257;28;20128;-72
2022/10/11 07:21:53;;;;;;;12.88;3.85;;;;;;;5.98;100.00;99536.94;4157206;28;20148;-72
2022/10/11 07:23:53;;;;;;;8.60;4.63;;;;;;;6.07;100.00;99539.69;4155569;28;20112;-72
2022/10/11 07:25:54;;;;;;;12.82;3.25;;;;;;;6.14;100.00;99545.53;4156484;28;20041;-72
2022/10/11 07:27:54;;;;;;;9.38;3.45;;;;;;;6.19;100.00;99539.84;4156608;28;20041;-72
2022/10/11 07:29:54;;;;;;;7.57;3.25;;;;;;;6.25;100.00;99544.06;4156258;28;20046;-71
2022/10/11 07:31:55;;;;;;;10.38;4.47;;;;;;;6.30;100.00;99548.59;4155389;28;20054;-72
2022/10/11 07:33:55;;;;;;;10.23;3.30;;;;;;;6.35;100.00;99542.91;4155966;28;20132;-71
2022/10/11 07:35:56;;;;;;;13.15;3.97;;;;;;;6.44;100.00;99543.72;4156666;28;20047;-72
2022/10/11 07:37:57;;;;;;;12.23;4.88;;;;;;;6.56;100.00;99551.34;4155662;28;20046;-72
2022/10/11 07:39:57;;;;;;;10.68;4.35;;;;;;;6.60;100.00;99549.53;4155564;28;20060;-72
2022/10/11 07:41:57;;;;;;;9.57;3.50;;;;;;;6.63;100.00;99551.66;4156356;28;20282;-72
2022/10/11 07:43:58;;;;;;;8.07;3.47;;;;;;;6.66;100.00;99560.03;4159439;28;20049;-72
2022/10/11 07:46:02;;;;;;;8.10;3.20;;;;;;;6.71;100.00;99561.81;4154714;28;20041;-72
2022/10/11 07:48:03;;;;;;;15.25;3.90;;;;;;;6.83;100.00;99564.72;4156902;28;20041;-72
2022/10/11 07:50:04;;;;;;;10.32;3.67;;;;;;;7.01;100.00;99565.47;4161140;28;20025;-72
2022/10/11 07:52:04;;;;;;;12.07;3.65;;;;;;;7.09;100.00;99559.13;4154762;28;20029;-72
2022/10/11 07:54:05;;;;;;;11.25;3.35;;;;;;;7.17;99.77;99569.31;4157931;28;20173;-72
2022/10/11 07:56:06;;;;;;;9.30;3.17;;;;;;;7.19;100.00;99561.53;4156261;28;20477;-72
2022/10/11 07:58:11;;;;;;;12.65;3.17;;;;;;;7.24;100.00;99560.53;4162090;28;20029;-72
2022/10/11 08:00:11;;;;;;;11.40;3.70;;;;;;;7.31;100.00;99561.66;4154433;28;20030;-71
2022/10/11 08:02:12;;;;;;;7.90;3.67;;;;;;;7.36;100.00;99560.66;4156510;28;20099;-72
2022/10/11 08:04:13;;;;;;;11.98;3.78;;;;;;;7.45;100.00;99564.19;4155947;28;20103;-71
2022/10/11 08:06:17;;;;;;;13.80;4.57;;;;;;;7.50;99.83;99558.50;4157338;28;20031;-72
2022/10/11 08:08:18;;;;;;;10.68;4.28;;;;;;;7.61;100.00;99567.19;4156353;28;20404;-72
2022/10/11 08:10:19;;;;;;;9.52;3.13;;;;;;;7.69;99.79;99562.75;4155600;28;20021;-72
2022/10/11 08:12:19;;;;;;;9.13;3.78;;;;;;;7.72;99.22;99567.63;4155899;28;20466;-72
2022/10/11 08:14:20;;;;;;;8.57;4.30;;;;;;;7.77;99.54;99570.16;4154496;28;20037;-72
2022/10/11 08:16:20;;;;;;;12.88;4.50;;;;;;;7.77;98.07;99581.19;4160886;28;20045;-72
2022/10/11 08:18:21;;;;;;;13.82;3.85;;;;;;;7.80;97.98;99578.59;4155247;28;20045;-72
2022/10/11 08:20:21;;;;;;;9.65;3.45;;;;;;;7.81;98.74;99576.66;4154735;28;20045;-72
2022/10/11 08:22:21;;;;;;;13.13;4.03;;;;;;;7.88;98.66;99574.97;4155941;28;20073;-72
2022/10/11 08:24:23;;;;;;;10.10;3.63;;;;;;;7.97;98.32;99580.44;4155014;28;20088;-72
2022/10/11 08:26:23;;;;;;;9.80;3.38;;;;;;;8.12;97.27;99571.59;4160553;28;20103;-72
2022/10/11 08:28:24;;;;;;;13.82;4.30;;;;;;;8.19;97.02;99579.28;4154392;28;20124;-72
2022/10/11 08:30:24;;;;;;;11.05;3.20;;;;;;;8.19;96.74;99571.03;4155462;28;20246;-72
2022/10/11 08:32:24;;;;;;;8.50;3.00;;;;;;;8.25;96.06;99583.47;4155507;28;20049;-72
2022/10/11 08:34:25;;;;;;;10.93;3.45;;;;;;;8.30;94.82;99577.78;4154892;28;20351;-72
2022/10/11 08:36:25;;;;;;;8.88;3.25;;;;;;;8.32;94.56;99574.69;4155847;28;20049;-72
2022/10/11 08:38:25;;;;;;;13.55;3.63;;;;;;;8.39;95.24;99584.06;4154920;28;20096;-72
2022/10/11 08:40:26;;;;;;;8.80;3.20;;;;;;;8.50;95.59;99578.13;4154668;28;20049;-72
2022/10/11 08:42:44;;;;;;;15.88;4.65;;;;;;;8.52;95.12;99582.16;4155944;28;20053;-72
2022/10/11 08:44:53;;;;;;;9.57;3.25;;;;;;;8.53;95.08;99575.53;4155457;28;20053;-72
2022/10/11 08:47:08;;;;;;;6.72;2.53;;;;;;;8.53;94.20;99580.22;4155017;28;20076;-72
2022/10/11 08:49:12;;;;;;;13.25;3.10;;;;;;;8.56;94.21;99574.03;4154014;28;20053;-71
2022/10/11 08:51:15;;;;;;;8.32;3.25;;;;;;;8.63;93.46;99575.09;4155945;28;20571;-71
2022/10/11 08:53:19;;;;;;;14.30;2.70;;;;;;;8.65;92.53;99581.06;4154957;28;20034;-72
2022/10/11 08:55:30;;;;;;;11.02;2.90;;;;;;;8.73;91.94;99584.91;4155170;28;20552;-71
2022/10/11 08:57:35;;;;;;;11.90;3.10;;;;;;;8.80;91.76;99585.16;4154010;28;20406;-71
2022/10/11 08:59:53;;;;;;;11.65;4.38;;;;;;;8.85;91.75;99584.94;4155201;28;20052;-72
2022/10/11 09:02:20;;;;;;;7.97;2.85;;;;;;;8.89;90.53;99576.81;4155155;28;20144;-72
2022/10/11 09:04:20;;;;;;;9.18;2.83;;;;;;;8.92;90.84;99579.69;4158207;28;20111;-72
2022/10/11 09:06:35;;;;;;;9.40;2.72;;;;;;;8.97;90.32;99585.00;4155177;28;20056;-72
2022/10/11 09:08:51;;;;;;;14.63;3.22;;;;;;;9.08;90.11;99577.06;4154191;28;20049;-72
2022/10/11 09:11:03;;;;;;;11.10;2.85;;;;;;;9.11;90.04;99573.66;4154502;28;20468;-72
2022/10/11 09:13:03;;;;;;;8.98;2.45;;;;;;;9.18;88.82;99578.59;4155498;28;20053;-72
2022/10/11 09:15:16;;;;;;;9.65;2.67;;;;;;;9.21;87.91;99577.94;4153975;28;20103;-72
2022/10/11 09:18:03;;;;;;;7.95;2.90;;;;;;;9.18;87.69;99568.34;4167180;28;20136;-71
2022/10/11 09:20:21;;;;;;;10.75;3.30;;;;;;;9.16;88.25;99570.66;4153944;28;20050;-72
2022/10/11 09:22:53;;;;;;;8.45;2.50;;;;;;;9.22;87.14;99576.78;4154696;28;20414;-72
2022/10/11 09:25:18;;;;;;;10.13;2.58;;;;;;;9.38;87.10;99577.72;4155296;28;20081;-72
2022/10/11 09:27:27;;;;;;;8.90;2.67;;;;;;;9.42;86.46;99570.34;4158784;28;20405;-72
2022/10/11 09:29:38;;;;;;;7.50;2.45;;;;;;;9.49;86.96;99569.78;4154414;28;20115;-72
2022/10/11 09:31:41;;;;;;;7.03;2.17;;;;;;;9.45;87.04;99572.44;4153782;28;20382;-73
2022/10/11 09:33:48;;;;;;;9.98;2.72;;;;;;;9.41;87.40;99573.47;4155659;28;20783;-72
2022/10/11 09:35:51;;;;;;;6.30;2.28;;;;;;;9.46;86.54;99570.47;4155231;28;20049;-72
2022/10/11 09:37:56;;;;;;;11.38;2.60;;;;;;;9.54;83.80;99573.13;4153734;28;20102;-71
2022/10/11 09:40:20;;;;;;;6.20;2.00;;;;;;;9.53;82.72;99560.47;4158130;28;20048;-72
2022/10/11 09:42:21;;;;;;;11.60;2.28;;;;;;;9.48;83.04;99562.66;4146189;28;20088;-72